Time;durP1;ratioP1;P1;durP2;ratioP2;P2;SDS_P1;SDS_P2;PMS_P1;PMS_P2;Temp;Humidity;BMP_temperature;BMP_pressure;BME280_temperature;BME280_humidity;BME280_pressure;Samples;Min_cycle;Max_cycle;Signal;HPM_P1;HPM_P2
2023/01/31 00:00:49;;;;;;;6.87;2.60;;;3.50;99.90;;;;;;4881159;29;20181;-70
2023/01/31 00:03:14;;;;;;;7.87;2.27;;;3.40;99.90;;;;;;4865869;29;20189;-70
2023/01/31 00:05:40;;;;;;;9.03;2.87;;;3.50;99.90;;;;;;4872554;29;20177;-70
2023/01/31 00:08:06;;;;;;;13.07;2.83;;;3.40;99.90;;;;;;4878665;29;20219;-69
2023/01/31 00:10:31;;;;;;;7.93;2.30;;;3.40;99.90;;;;;;4878854;29;20189;-68
2023/01/31 00:12:57;;;;;;;9.80;3.73;;;3.30;99.90;;;;;;4879392;29;20224;-70
2023/01/31 00:15:23;;;;;;;9.43;2.80;;;3.50;99.90;;;;;;4879036;29;20554;-68
2023/01/31 00:17:49;;;;;;;3.73;2.10;;;3.40;99.90;;;;;;4878586;29;20256;-68
2023/01/31 00:20:14;;;;;;;6.90;2.23;;;3.40;99.90;;;;;;4886181;29;20409;-69
2023/01/31 00:22:40;;;;;;;5.83;2.40;;;3.40;99.90;;;;;;4874266;29;20690;-69
2023/01/31 00:25:06;;;;;;;14.03;3.30;;;3.40;99.90;;;;;;4879303;29;20190;-68
2023/01/31 00:27:32;;;;;;;6.70;2.43;;;3.30;99.90;;;;;;4881241;29;20315;-68
2023/01/31 00:29:57;;;;;;;14.67;3.37;;;3.30;99.90;;;;;;4886918;29;20460;-68
2023/01/31 00:32:25;;;;;;;16.50;4.30;;;3.30;99.90;;;;;;4890679;29;20275;-68
2023/01/31 00:34:52;;;;;;;16.53;2.17;;;3.30;99.90;;;;;;4878345;29;20181;-70
2023/01/31 00:37:19;;;;;;;12.87;3.67;;;3.30;99.90;;;;;;4869344;29;20441;-68
2023/01/31 00:39:44;;;;;;;11.40;2.10;;;3.30;99.90;;;;;;4878744;29;20417;-70
2023/01/31 00:42:10;;;;;;;13.53;2.33;;;3.30;99.90;;;;;;4878175;29;20862;-68
2023/01/31 00:44:36;;;;;;;8.97;3.03;;;3.30;99.90;;;;;;4882762;29;20238;-69
2023/01/31 00:47:02;;;;;;;8.17;2.30;;;3.20;99.90;;;;;;4881271;29;20437;-68
2023/01/31 00:49:27;;;;;;;4.17;2.20;;;3.30;99.90;;;;;;4882121;29;20192;-69
2023/01/31 00:51:53;;;;;;;5.83;2.00;;;3.30;99.90;;;;;;4875384;29;20216;-69
2023/01/31 00:54:18;;;;;;;7.47;2.40;;;3.40;99.90;;;;;;4877365;29;20196;-69
2023/01/31 00:56:44;;;;;;;10.33;2.50;;;3.50;99.90;;;;;;4880984;29;20204;-69
2023/01/31 00:59:10;;;;;;;12.60;2.93;;;3.50;99.90;;;;;;4886711;29;20185;-69
2023/01/31 01:01:36;;;;;;;5.80;3.53;;;3.60;99.90;;;;;;4880648;29;20177;-69
2023/01/31 01:04:02;;;;;;;5.23;2.00;;;3.60;99.90;;;;;;4881286;29;20180;-69
2023/01/31 01:06:28;;;;;;;7.43;2.63;;;3.60;99.90;;;;;;4875712;29;20448;-69
2023/01/31 01:08:55;;;;;;;10.90;2.03;;;3.70;99.90;;;;;;4889338;29;20173;-69
2023/01/31 01:11:23;;;;;;;5.37;2.10;;;3.70;99.90;;;;;;4879010;29;20409;-69
2023/01/31 01:13:50;;;;;;;7.60;4.13;;;3.70;99.90;;;;;;4876408;29;20436;-69
2023/01/31 01:16:21;;;;;;;7.63;1.97;;;3.80;99.90;;;;;;4880658;29;20409;-69
2023/01/31 01:18:49;;;;;;;7.17;2.30;;;3.80;99.90;;;;;;4877134;29;20444;-69
2023/01/31 01:21:17;;;;;;;5.60;2.07;;;3.90;99.90;;;;;;4880238;29;20425;-69
2023/01/31 01:23:45;;;;;;;7.50;2.40;;;3.80;99.90;;;;;;4874008;29;20425;-69
2023/01/31 01:26:20;;;;;;;5.23;2.20;;;3.90;99.90;;;;;;4879590;29;20430;-69
2023/01/31 01:28:46;;;;;;;10.03;2.37;;;3.90;99.90;;;;;;4874517;29;20424;-69
2023/01/31 01:31:17;;;;;;;8.63;2.30;;;3.90;99.90;;;;;;4878995;29;20485;-69
2023/01/31 01:33:44;;;;;;;4.20;2.97;;;3.90;99.90;;;;;;4874969;29;20878;-69
2023/01/31 01:36:12;;;;;;;5.47;2.33;;;3.90;99.90;;;;;;4881219;29;20504;-68
2023/01/31 01:38:41;;;;;;;6.93;1.83;;;3.90;99.90;;;;;;4881587;29;20414;-68
2023/01/31 01:41:07;;;;;;;4.10;1.60;;;3.90;99.90;;;;;;4877601;29;20919;-69
2023/01/31 01:43:45;;;;;;;8.00;2.30;;;3.90;99.90;;;;;;4881636;29;20422;-69
2023/01/31 01:46:27;;;;;;;10.83;1.87;;;3.90;99.90;;;;;;4881384;29;20413;-69
2023/01/31 01:49:19;;;;;;;11.63;1.73;;;4.00;99.90;;;;;;4883277;29;20429;-69
2023/01/31 01:51:47;;;;;;;9.40;2.30;;;3.90;99.90;;;;;;4882465;29;20457;-69
2023/01/31 01:54:20;;;;;;;8.90;1.60;;;4.00;99.90;;;;;;4880610;29;20501;-70
2023/01/31 01:56:49;;;;;;;10.87;1.77;;;4.00;99.90;;;;;;4877108;29;20469;-69
2023/01/31 01:59:21;;;;;;;4.90;2.00;;;4.00;99.90;;;;;;4880835;29;20417;-69
2023/01/31 02:01:49;;;;;;;3.83;1.97;;;3.90;99.90;;;;;;4875830;29;20406;-69
2023/01/31 02:04:19;;;;;;;5.20;2.17;;;3.90;99.90;;;;;;4875024;29;20449;-69
2023/01/31 02:06:45;;;;;;;6.27;1.73;;;3.90;99.90;;;;;;4877543;29;20979;-69
2023/01/31 02:09:21;;;;;;;11.33;2.33;;;3.90;99.90;;;;;;4888000;29;20440;-69
2023/01/31 02:11:47;;;;;;;7.87;1.73;;;3.90;99.90;;;;;;4876949;29;20808;-69
2023/01/31 02:14:13;;;;;;;2.37;1.40;;;3.90;99.90;;;;;;4878500;29;20778;-69
2023/01/31 02:16:38;;;;;;;3.90;1.63;;;4.00;99.90;;;;;;4882022;29;20435;-69
2023/01/31 02:19:18;;;;;;;5.40;1.90;;;3.90;99.90;;;;;;4877200;29;20229;-69
2023/01/31 02:22:11;;;;;;;3.33;1.50;;;3.90;99.90;;;;;;4875778;29;20177;-69
2023/01/31 02:24:58;;;;;;;8.70;1.97;;;4.00;99.90;;;;;;4903946;23;20496;-64
2023/01/31 02:27:36;;;;;;;2.07;1.87;;;4.00;99.90;;;;;;4897460;29;20509;-67
2023/01/31 02:30:30;;;;;;;6.30;1.90;;;4.00;99.90;;;;;;4893068;29;20420;-66
2023/01/31 02:33:33;;;;;;;6.67;2.43;;;4.00;99.90;;;;;;4892292;29;20464;-66
2023/01/31 02:36:32;;;;;;;8.03;2.03;;;4.00;99.90;;;;;;4892601;29;20460;-68
2023/01/31 02:39:19;;;;;;;8.57;1.83;;;4.00;99.90;;;;;;4893317;29;20444;-68
2023/01/31 02:41:55;;;;;;;6.73;2.20;;;4.00;99.90;;;;;;4891385;29;20833;-68
2023/01/31 02:47:41;;;;;;;6.20;2.30;;;3.90;99.90;;;;;;4900292;29;20416;-67
2023/01/31 02:50:29;;;;;;;12.70;2.07;;;4.00;99.90;;;;;;4893996;29;20424;-67
2023/01/31 02:53:02;;;;;;;5.77;1.90;;;3.90;99.90;;;;;;4895170;29;20468;-68
2023/01/31 02:58:20;;;;;;;8.90;2.80;;;3.70;99.90;;;;;;4894775;29;20786;-67
2023/01/31 03:00:48;;;;;;;21.70;3.30;;;3.60;99.90;;;;;;4893769;29;20437;-67
2023/01/31 03:03:26;;;;;;;2.57;2.30;;;3.50;99.90;;;;;;4898487;29;20444;-66
2023/01/31 03:06:10;;;;;;;3.50;1.90;;;3.40;99.90;;;;;;4896974;29;20440;-66
2023/01/31 03:08:40;;;;;;;3.20;1.60;;;3.30;99.90;;;;;;4897310;29;20417;-67
2023/01/31 03:11:07;;;;;;;4.87;1.37;;;3.30;99.90;;;;;;4898457;29;20417;-67
2023/01/31 03:14:15;;;;;;;4.63;1.83;;;3.30;99.90;;;;;;4897736;29;20531;-67
2023/01/31 03:20:08;;;;;;;8.13;2.67;;;3.10;99.90;;;;;;4891238;29;20502;-66
2023/01/31 03:22:38;;;;;;;6.03;1.80;;;3.20;99.90;;;;;;4893671;29;20777;-66
2023/01/31 03:25:08;;;;;;;6.13;1.97;;;3.00;99.90;;;;;;4896893;29;20548;-67
2023/01/31 03:27:35;;;;;;;3.33;1.67;;;3.10;99.90;;;;;;4892819;29;20424;-66
2023/01/31 03:30:09;;;;;;;4.97;2.30;;;3.10;99.90;;;;;;4898115;29;20473;-67
2023/01/31 03:32:44;;;;;;;1.60;1.20;;;2.90;99.90;;;;;;4893435;29;20464;-68
2023/01/31 03:35:10;;;;;;;1.77;1.30;;;2.90;99.90;;;;;;4897418;29;20638;-67
2023/01/31 03:37:56;;;;;;;2.40;2.10;;;3.00;99.90;;;;;;4900805;29;20470;-67
2023/01/31 03:40:39;;;;;;;3.13;1.30;;;2.90;99.90;;;;;;4896581;29;20764;-66
2023/01/31 03:43:25;;;;;;;4.27;1.70;;;2.90;99.90;;;;;;4894763;29;20436;-68
2023/01/31 03:45:57;;;;;;;2.70;1.50;;;2.80;99.90;;;;;;4885999;29;20441;-68
2023/01/31 03:48:30;;;;;;;8.10;2.13;;;2.90;99.90;;;;;;4891717;29;21082;-68
2023/01/31 03:50:59;;;;;;;3.70;1.27;;;2.80;99.90;;;;;;4894075;29;20508;-68
2023/01/31 03:53:32;;;;;;;3.70;1.87;;;2.80;99.90;;;;;;4890947;29;20519;-66
2023/01/31 03:56:11;;;;;;;3.60;1.93;;;2.80;99.90;;;;;;4895013;29;20436;-66
2023/01/31 03:58:43;;;;;;;5.27;1.67;;;2.80;99.90;;;;;;4895135;29;20409;-66
2023/01/31 04:01:11;;;;;;;10.33;1.77;;;2.80;99.90;;;;;;4895450;29;20893;-67
2023/01/31 04:03:53;;;;;;;2.90;2.03;;;2.80;99.90;;;;;;4891462;29;20750;-66
2023/01/31 04:06:19;;;;;;;7.50;2.23;;;2.80;99.90;;;;;;4893678;29;20412;-66
2023/01/31 04:08:45;;;;;;;3.20;1.47;;;2.80;99.90;;;;;;4895727;29;20443;-66
2023/01/31 04:11:13;;;;;;;17.53;2.60;;;2.70;99.90;;;;;;4892930;29;20695;-66
2023/01/31 04:13:40;;;;;;;3.87;2.10;;;2.70;99.90;;;;;;4894898;29;20211;-66
2023/01/31 04:16:06;;;;;;;5.53;2.07;;;2.70;99.90;;;;;;4891498;29;20448;-66
2023/01/31 04:18:32;;;;;;;7.67;1.57;;;2.80;99.90;;;;;;4894082;29;20425;-66
2023/01/31 04:20:57;;;;;;;6.07;2.53;;;2.70;99.90;;;;;;4891109;29;20420;-66
2023/01/31 04:23:25;;;;;;;5.63;1.43;;;2.70;99.90;;;;;;4892423;29;20298;-66
2023/01/31 04:25:53;;;;;;;5.07;1.67;;;2.60;99.90;;;;;;4895585;29;20572;-65
2023/01/31 04:28:20;;;;;;;10.50;3.73;;;2.70;99.90;;;;;;4893050;29;20428;-66
2023/01/31 04:30:45;;;;;;;4.97;1.67;;;2.60;99.90;;;;;;4899886;29;20433;-67
2023/01/31 04:33:11;;;;;;;6.30;2.77;;;2.60;99.90;;;;;;4891218;29;20792;-66
2023/01/31 04:35:39;;;;;;;4.00;1.67;;;2.70;99.90;;;;;;4893010;29;20212;-67
2023/01/31 04:38:05;;;;;;;3.50;1.90;;;2.50;99.90;;;;;;4894500;29;20351;-65
2023/01/31 04:40:30;;;;;;;4.50;1.97;;;2.60;99.90;;;;;;4894716;29;20540;-66
2023/01/31 04:42:56;;;;;;;12.30;2.20;;;2.50;99.90;;;;;;4893284;29;20180;-66
2023/01/31 04:45:22;;;;;;;10.53;2.50;;;2.40;99.90;;;;;;4894879;29;20697;-67
2023/01/31 04:47:47;;;;;;;4.07;1.83;;;2.50;99.90;;;;;;4893462;29;20187;-66
2023/01/31 04:50:13;;;;;;;6.63;1.73;;;2.60;99.90;;;;;;4897844;29;20267;-67
2023/01/31 04:52:38;;;;;;;5.00;2.60;;;2.70;99.90;;;;;;4896124;29;20264;-67
2023/01/31 04:55:04;;;;;;;8.83;2.00;;;2.60;99.90;;;;;;4903418;29;20199;-67
2023/01/31 04:57:30;;;;;;;7.23;2.37;;;2.60;99.90;;;;;;4899352;29;20263;-66
2023/01/31 04:59:56;;;;;;;14.23;2.23;;;2.70;99.90;;;;;;4897652;29;20491;-67
2023/01/31 05:02:22;;;;;;;7.73;2.13;;;2.70;99.90;;;;;;4899295;29;20280;-67
2023/01/31 05:04:47;;;;;;;8.00;2.03;;;2.60;99.90;;;;;;4895740;29;20580;-67
2023/01/31 05:07:13;;;;;;;7.63;2.47;;;2.70;99.90;;;;;;4903186;29;20420;-67
2023/01/31 05:09:41;;;;;;;12.13;2.00;;;2.70;99.90;;;;;;4899084;29;20177;-67
2023/01/31 05:12:07;;;;;;;8.53;2.60;;;2.70;99.90;;;;;;4895920;29;20211;-66
2023/01/31 05:14:32;;;;;;;4.63;1.73;;;2.80;99.90;;;;;;4897977;29;20487;-67
2023/01/31 05:16:58;;;;;;;8.87;2.27;;;2.80;99.90;;;;;;4905122;29;20412;-66
2023/01/31 05:19:24;;;;;;;4.20;2.93;;;2.80;99.90;;;;;;4900257;29;20177;-65
2023/01/31 05:21:58;;;;;;;8.50;2.07;;;2.90;99.90;;;;;;4892637;29;20257;-65
2023/01/31 05:24:26;;;;;;;2.93;1.87;;;2.90;99.90;;;;;;4906082;29;20206;-67
2023/01/31 05:26:55;;;;;;;3.87;1.60;;;2.80;99.90;;;;;;4901292;29;20497;-67
2023/01/31 05:29:21;;;;;;;4.00;1.97;;;2.80;99.90;;;;;;4909932;29;20427;-66
2023/01/31 05:31:50;;;;;;;10.37;2.47;;;2.70;99.90;;;;;;4897877;29;20417;-65
2023/01/31 05:34:16;;;;;;;8.47;2.23;;;2.80;99.90;;;;;;4899127;29;20224;-66
2023/01/31 05:36:42;;;;;;;3.70;1.97;;;2.90;99.90;;;;;;4901155;29;20591;-67
2023/01/31 05:39:08;;;;;;;4.30;2.27;;;3.00;99.90;;;;;;4899261;29;20505;-68
2023/01/31 05:41:34;;;;;;;7.93;3.67;;;3.00;99.90;;;;;;4896223;29;20181;-68
2023/01/31 05:44:00;;;;;;;18.43;2.70;;;3.10;99.90;;;;;;4900381;29;20423;-70
2023/01/31 05:46:25;;;;;;;6.10;1.97;;;3.10;99.90;;;;;;4893884;29;20499;-67
2023/01/31 05:48:51;;;;;;;5.43;1.80;;;3.20;99.90;;;;;;4899398;29;20692;-66
2023/01/31 05:51:16;;;;;;;9.70;2.10;;;3.30;99.90;;;;;;4906964;29;20176;-67
2023/01/31 05:53:42;;;;;;;5.93;1.60;;;3.30;99.90;;;;;;4896161;29;20187;-67
2023/01/31 05:56:07;;;;;;;7.20;2.60;;;3.30;99.90;;;;;;4899870;29;20188;-67
2023/01/31 05:58:33;;;;;;;8.13;2.20;;;3.40;99.90;;;;;;4900102;29;20176;-66
2023/01/31 06:00:59;;;;;;;5.10;1.57;;;3.40;99.90;;;;;;4897522;29;20202;-66
2023/01/31 06:03:24;;;;;;;12.03;2.77;;;3.50;99.90;;;;;;4901896;29;20446;-69
2023/01/31 06:05:50;;;;;;;9.80;2.10;;;3.50;99.90;;;;;;4900076;29;20219;-67
2023/01/31 06:08:16;;;;;;;5.40;2.40;;;3.50;99.90;;;;;;4903142;29;20635;-67
2023/01/31 06:10:42;;;;;;;10.73;2.80;;;3.50;99.90;;;;;;4897602;29;20530;-67
2023/01/31 06:13:08;;;;;;;4.20;2.00;;;3.60;99.90;;;;;;4900245;29;20468;-66
2023/01/31 06:16:07;;;;;;;19.40;2.80;;;3.70;99.90;;;;;;4896724;29;20196;-66
2023/01/31 06:18:32;;;;;;;8.23;1.83;;;3.70;99.90;;;;;;4904075;29;20217;-66
2023/01/31 06:20:58;;;;;;;9.80;2.47;;;3.70;99.90;;;;;;4894279;29;20409;-67
2023/01/31 06:23:24;;;;;;;4.20;3.13;;;3.70;99.90;;;;;;4895737;29;20181;-67
2023/01/31 06:25:50;;;;;;;5.63;1.60;;;3.70;99.90;;;;;;4898955;29;20659;-68
2023/01/31 06:28:17;;;;;;;6.10;2.47;;;3.70;99.90;;;;;;4901157;29;20492;-67
2023/01/31 06:30:42;;;;;;;10.87;3.77;;;3.70;99.90;;;;;;4899967;29;20415;-66
2023/01/31 06:33:08;;;;;;;5.43;2.60;;;3.70;99.90;;;;;;4897649;29;20484;-65
2023/01/31 06:35:34;;;;;;;3.60;2.40;;;3.80;99.90;;;;;;4899421;29;20200;-67
2023/01/31 06:38:00;;;;;;;4.73;2.63;;;3.80;99.90;;;;;;4905190;29;20180;-68
2023/01/31 06:40:25;;;;;;;11.03;3.83;;;3.80;99.90;;;;;;4905075;29;20504;-67
2023/01/31 06:42:51;;;;;;;7.60;2.50;;;3.80;99.90;;;;;;4901801;29;20488;-66
2023/01/31 06:45:17;;;;;;;10.20;2.10;;;3.90;99.90;;;;;;4906412;29;20723;-67
2023/01/31 06:47:44;;;;;;;14.67;2.93;;;3.90;99.90;;;;;;4894552;29;20188;-65
2023/01/31 06:50:11;;;;;;;9.87;2.40;;;3.90;99.90;;;;;;4904529;29;20188;-67
2023/01/31 06:52:37;;;;;;;6.13;2.83;;;3.90;99.90;;;;;;4897092;29;20504;-67
2023/01/31 06:55:03;;;;;;;4.07;2.23;;;4.00;99.90;;;;;;4898582;29;20441;-67
2023/01/31 06:57:28;;;;;;;6.00;2.37;;;4.00;99.90;;;;;;4899726;29;20435;-67
2023/01/31 06:59:54;;;;;;;5.40;2.23;;;4.00;99.90;;;;;;4897380;29;20177;-67
2023/01/31 07:02:20;;;;;;;6.17;2.37;;;4.00;99.90;;;;;;4901441;29;20184;-67
2023/01/31 07:04:45;;;;;;;4.20;2.33;;;4.00;99.90;;;;;;4895204;29;20193;-67
2023/01/31 07:07:11;;;;;;;11.90;2.50;;;4.00;99.90;;;;;;4897335;29;20512;-69
2023/01/31 07:09:36;;;;;;;5.10;2.07;;;4.00;99.90;;;;;;4897424;29;20412;-69
2023/01/31 07:12:02;;;;;;;4.10;1.90;;;4.00;99.90;;;;;;4895953;29;20200;-69
2023/01/31 07:14:28;;;;;;;8.80;2.13;;;4.00;99.90;;;;;;4896832;29;20203;-68
2023/01/31 07:16:54;;;;;;;1.97;1.77;;;4.10;99.90;;;;;;4897330;29;20437;-70
2023/01/31 07:19:20;;;;;;;11.93;2.53;;;4.10;99.90;;;;;;4894862;29;20492;-66
2023/01/31 07:21:47;;;;;;;19.37;3.87;;;4.10;99.90;;;;;;4894141;29;20184;-69
2023/01/31 07:24:14;;;;;;;5.13;1.93;;;4.10;99.90;;;;;;4895355;29;20239;-67
2023/01/31 07:26:40;;;;;;;3.73;2.93;;;4.10;99.90;;;;;;4892295;29;20492;-66
2023/01/31 07:29:05;;;;;;;9.70;2.37;;;4.20;99.90;;;;;;4896240;29;20437;-67
2023/01/31 07:31:31;;;;;;;10.20;2.80;;;4.20;99.90;;;;;;4893459;29;20652;-67
2023/01/31 07:33:56;;;;;;;8.70;2.20;;;4.20;99.90;;;;;;4892669;29;20208;-67
2023/01/31 07:36:25;;;;;;;11.20;1.77;;;4.20;99.90;;;;;;4891104;29;20173;-65
2023/01/31 07:38:54;;;;;;;5.50;2.80;;;4.20;99.90;;;;;;4894402;29;20172;-68
2023/01/31 07:41:20;;;;;;;11.53;4.87;;;4.20;99.90;;;;;;4895366;29;20434;-67
2023/01/31 07:43:46;;;;;;;14.80;5.20;;;4.30;99.90;;;;;;4893913;29;20497;-68
2023/01/31 07:46:11;;;;;;;7.67;3.57;;;4.30;99.90;;;;;;4891818;29;20581;-69
2023/01/31 07:48:38;;;;;;;9.70;3.17;;;4.20;99.90;;;;;;4900785;29;20188;-69
2023/01/31 07:51:04;;;;;;;8.50;4.97;;;4.20;99.90;;;;;;4901964;29;20181;-69
2023/01/31 07:53:32;;;;;;;6.50;2.63;;;4.20;99.90;;;;;;4891504;29;20468;-68
2023/01/31 07:56:14;;;;;;;2.80;2.00;;;4.20;99.90;;;;;;4896239;29;20468;-67
2023/01/31 07:58:41;;;;;;;6.77;2.77;;;4.30;99.90;;;;;;4892169;29;20485;-67
2023/01/31 08:03:53;;;;;;;6.97;2.60;;;4.40;99.90;;;;;;4895556;29;20499;-67
2023/01/31 08:06:18;;;;;;;7.23;2.60;;;4.30;99.90;;;;;;4891586;29;20800;-67
2023/01/31 08:08:45;;;;;;;9.80;2.87;;;4.30;99.90;;;;;;4900684;29;20203;-67
2023/01/31 08:11:11;;;;;;;8.53;2.33;;;4.40;99.90;;;;;;4898436;29;20183;-67
2023/01/31 08:13:37;;;;;;;11.90;3.00;;;4.30;99.90;;;;;;4889841;29;20479;-67
2023/01/31 08:16:05;;;;;;;4.63;2.30;;;4.40;99.90;;;;;;4890401;29;20963;-66
2023/01/31 08:18:31;;;;;;;4.90;1.87;;;4.40;99.90;;;;;;4906309;29;20427;-67
2023/01/31 08:20:57;;;;;;;11.23;3.07;;;4.40;99.90;;;;;;4892105;29;20600;-68
2023/01/31 08:23:23;;;;;;;5.23;2.20;;;4.50;99.90;;;;;;4896346;29;20420;-68
2023/01/31 08:25:49;;;;;;;12.97;2.20;;;4.50;99.90;;;;;;4915736;23;21198;-70
2023/01/31 08:28:15;;;;;;;3.77;1.67;;;4.50;99.90;;;;;;4894838;29;20187;-71
2023/01/31 08:30:42;;;;;;;5.73;2.27;;;4.50;99.90;;;;;;4892004;29;20169;-71
2023/01/31 08:33:09;;;;;;;9.07;2.40;;;4.50;99.90;;;;;;4896120;29;20547;-71
2023/01/31 08:35:35;;;;;;;4.90;1.93;;;4.50;99.90;;;;;;4885851;29;20444;-71
2023/01/31 08:38:01;;;;;;;6.63;2.40;;;4.40;99.90;;;;;;4888695;29;20424;-71
2023/01/31 08:40:26;;;;;;;5.23;2.20;;;4.50;99.90;;;;;;4887237;29;20641;-72
2023/01/31 08:42:54;;;;;;;2.50;1.70;;;4.50;99.90;;;;;;4884208;29;20220;-71
2023/01/31 08:45:20;;;;;;;10.63;3.23;;;4.50;99.90;;;;;;4886354;29;20220;-72
2023/01/31 08:47:45;;;;;;;5.73;2.17;;;4.50;99.90;;;;;;4893434;29;20420;-71
2023/01/31 08:50:11;;;;;;;8.97;2.47;;;4.50;99.90;;;;;;4894112;29;20427;-71
2023/01/31 08:52:37;;;;;;;2.90;1.40;;;4.60;99.90;;;;;;4892165;29;20196;-71
2023/01/31 08:55:05;;;;;;;3.77;2.23;;;4.60;99.90;;;;;;4881790;29;20284;-71
2023/01/31 08:57:30;;;;;;;5.40;2.17;;;4.50;99.90;;;;;;4889664;29;20172;-73
2023/01/31 08:59:56;;;;;;;7.63;3.20;;;4.60;99.90;;;;;;4888466;29;20425;-72
2023/01/31 09:02:22;;;;;;;5.40;2.10;;;4.60;99.90;;;;;;4880978;29;20176;-71
2023/01/31 09:04:48;;;;;;;11.53;2.27;;;4.80;99.90;;;;;;4888117;29;20679;-72
2023/01/31 09:07:14;;;;;;;4.67;1.73;;;4.70;99.90;;;;;;4893643;29;20207;-70
2023/01/31 09:09:39;;;;;;;2.67;1.73;;;4.70;99.90;;;;;;4891770;29;20923;-71
2023/01/31 09:12:05;;;;;;;7.20;2.00;;;4.70;99.90;;;;;;4886781;29;20208;-71
2023/01/31 09:14:31;;;;;;;8.90;1.67;;;4.80;99.90;;;;;;4883590;29;20181;-72
2023/01/31 09:16:56;;;;;;;10.30;2.43;;;4.80;99.90;;;;;;4880741;29;20255;-71
2023/01/31 09:19:22;;;;;;;10.00;2.43;;;4.70;99.90;;;;;;4885473;29;20173;-72
2023/01/31 09:21:48;;;;;;;6.70;2.13;;;4.70;99.90;;;;;;4891718;29;20207;-71
2023/01/31 09:24:14;;;;;;;3.93;1.83;;;4.80;99.90;;;;;;4885520;29;20208;-72
2023/01/31 09:26:39;;;;;;;9.30;2.40;;;4.90;99.90;;;;;;4883575;29;20503;-72
2023/01/31 09:29:05;;;;;;;2.93;1.80;;;4.90;99.90;;;;;;4889660;29;20187;-72
2023/01/31 09:31:30;;;;;;;11.33;2.17;;;4.90;99.90;;;;;;4892881;29;20630;-71
2023/01/31 09:33:56;;;;;;;4.97;1.93;;;4.90;99.90;;;;;;4887567;29;20204;-72
2023/01/31 09:36:23;;;;;;;7.53;2.80;;;4.90;99.90;;;;;;4890233;29;20651;-73
2023/01/31 09:38:56;;;;;;;10.83;2.93;;;5.00;99.90;;;;;;4892432;29;20187;-73
2023/01/31 09:41:30;;;;;;;13.70;2.70;;;5.10;99.90;;;;;;4878985;29;20456;-72
2023/01/31 09:44:20;;;;;;;6.57;2.77;;;5.20;99.90;;;;;;4888615;29;20419;-71
2023/01/31 09:46:53;;;;;;;6.80;2.43;;;5.10;99.90;;;;;;4875179;29;20780;-71
2023/01/31 09:49:26;;;;;;;7.17;2.80;;;5.10;99.90;;;;;;4891031;29;20436;-71
2023/01/31 09:51:57;;;;;;;8.50;3.50;;;5.20;99.90;;;;;;4890832;29;20770;-72
2023/01/31 09:54:34;;;;;;;6.03;3.00;;;5.30;99.90;;;;;;4890079;29;20416;-72
2023/01/31 09:57:21;;;;;;;8.07;2.07;;;5.40;99.90;;;;;;4890572;29;20408;-70
2023/01/31 10:00:16;;;;;;;16.87;2.40;;;5.50;99.90;;;;;;4881630;29;20406;-72
2023/01/31 10:02:51;;;;;;;5.17;1.87;;;5.50;99.90;;;;;;4877210;29;20439;-71
2023/01/31 10:05:38;;;;;;;5.07;2.23;;;5.50;99.90;;;;;;4878121;29;20445;-71
2023/01/31 10:08:10;;;;;;;15.13;2.60;;;5.50;99.90;;;;;;4887797;29;20450;-72
2023/01/31 10:10:42;;;;;;;6.00;3.10;;;5.40;99.90;;;;;;4890166;29;20417;-71
2023/01/31 10:13:30;;;;;;;4.93;2.70;;;5.50;99.90;;;;;;4890046;29;20992;-72
2023/01/31 10:16:08;;;;;;;6.47;2.30;;;5.60;99.90;;;;;;4874548;29;20460;-71
2023/01/31 10:18:41;;;;;;;6.93;2.33;;;5.60;99.90;;;;;;4894279;29;20432;-72
2023/01/31 10:21:15;;;;;;;8.60;2.27;;;5.80;99.90;;;;;;4890540;29;20836;-71
2023/01/31 10:23:47;;;;;;;9.23;3.57;;;5.80;99.90;;;;;;4874980;29;20437;-71
2023/01/31 10:26:19;;;;;;;4.87;3.03;;;5.70;99.90;;;;;;4899744;29;20467;-71
2023/01/31 10:28:52;;;;;;;8.03;2.57;;;5.80;99.90;;;;;;4887890;29;20420;-71
2023/01/31 10:31:23;;;;;;;3.57;2.13;;;5.70;99.90;;;;;;4889514;29;20416;-72
2023/01/31 10:33:55;;;;;;;6.73;2.30;;;5.70;99.90;;;;;;4886925;29;20802;-71
2023/01/31 10:36:43;;;;;;;6.33;2.33;;;5.60;99.90;;;;;;4887931;29;20445;-71
2023/01/31 10:39:11;;;;;;;8.33;2.50;;;5.60;99.90;;;;;;4884293;29;20942;-71
2023/01/31 10:41:50;;;;;;;5.90;1.97;;;5.50;99.90;;;;;;4884587;29;20488;-70
2023/01/31 10:44:27;;;;;;;4.40;2.67;;;5.50;99.90;;;;;;4887764;29;20409;-71
2023/01/31 10:46:57;;;;;;;7.53;1.80;;;5.60;99.90;;;;;;4881559;29;20463;-71
2023/01/31 10:49:25;;;;;;;6.67;2.53;;;5.70;99.90;;;;;;4890369;29;20423;-71
2023/01/31 10:52:24;;;;;;;6.37;2.20;;;5.70;99.90;;;;;;4889927;29;20424;-71
2023/01/31 10:55:11;;;;;;;10.60;3.10;;;5.70;99.90;;;;;;4872301;29;20607;-71
2023/01/31 10:57:36;;;;;;;4.00;2.40;;;5.80;99.90;;;;;;4895154;29;20416;-71
2023/01/31 11:00:03;;;;;;;11.60;2.47;;;5.70;99.90;;;;;;4893527;29;20402;-71
2023/01/31 11:02:29;;;;;;;10.33;2.37;;;5.90;99.90;;;;;;4893532;29;20959;-72
2023/01/31 11:04:58;;;;;;;11.23;3.30;;;5.90;99.90;;;;;;4882571;29;20865;-71
2023/01/31 11:07:28;;;;;;;9.13;3.20;;;5.90;99.90;;;;;;4892857;29;20412;-72
2023/01/31 11:09:55;;;;;;;10.43;3.70;;;5.90;99.90;;;;;;4890981;29;20412;-72
2023/01/31 11:12:50;;;;;;;5.80;2.70;;;5.90;99.90;;;;;;4893535;29;20835;-73
2023/01/31 11:15:18;;;;;;;10.77;3.43;;;6.00;99.90;;;;;;4890337;29;20436;-71
2023/01/31 11:17:45;;;;;;;6.10;2.63;;;6.00;99.90;;;;;;4891972;29;20968;-71
2023/01/31 11:20:23;;;;;;;13.30;3.73;;;5.90;99.90;;;;;;4889633;29;20512;-71
2023/01/31 11:22:49;;;;;;;6.73;3.20;;;5.90;99.90;;;;;;4877117;29;20460;-71
2023/01/31 11:25:21;;;;;;;4.60;2.17;;;5.90;99.90;;;;;;4887454;29;20599;-71
2023/01/31 11:27:48;;;;;;;9.33;4.27;;;5.80;99.90;;;;;;4895233;29;20924;-71
2023/01/31 11:30:34;;;;;;;11.33;3.37;;;5.90;99.90;;;;;;4888924;29;20416;-73
2023/01/31 11:33:00;;;;;;;12.13;3.23;;;5.90;99.90;;;;;;4884169;29;20460;-72
2023/01/31 11:35:29;;;;;;;13.30;3.10;;;5.90;99.90;;;;;;4890033;29;20496;-72
2023/01/31 11:38:00;;;;;;;7.23;3.10;;;5.80;99.90;;;;;;4889858;29;20425;-72
2023/01/31 11:40:38;;;;;;;7.13;2.30;;;5.80;99.90;;;;;;4879835;29;20773;-73
2023/01/31 11:43:25;;;;;;;11.30;3.67;;;5.80;99.90;;;;;;4891638;29;20471;-73
2023/01/31 11:45:59;;;;;;;4.70;3.33;;;5.80;99.90;;;;;;4878959;29;20444;-73
2023/01/31 11:48:38;;;;;;;8.53;3.30;;;5.80;99.90;;;;;;4884836;29;20447;-73
2023/01/31 11:51:04;;;;;;;6.50;3.33;;;5.80;99.90;;;;;;4875871;29;20524;-73
2023/01/31 11:53:44;;;;;;;6.00;2.80;;;5.80;99.90;;;;;;4875872;29;20956;-73
2023/01/31 11:56:16;;;;;;;5.90;3.57;;;5.80;99.90;;;;;;4868996;29;20435;-74
2023/01/31 11:58:45;;;;;;;15.10;4.27;;;5.80;99.90;;;;;;4880765;29;20791;-73
2023/01/31 12:01:16;;;;;;;10.80;3.30;;;5.80;99.90;;;;;;4878115;29;20501;-75
2023/01/31 12:03:49;;;;;;;6.23;3.50;;;5.80;99.90;;;;;;4882152;29;20812;-74
2023/01/31 12:06:27;;;;;;;7.40;3.30;;;5.80;99.90;;;;;;4887551;29;20441;-74
2023/01/31 12:08:55;;;;;;;11.80;3.20;;;5.90;99.90;;;;;;4883320;29;20489;-75
2023/01/31 12:11:20;;;;;;;4.43;3.10;;;5.80;99.90;;;;;;4892791;29;20507;-74
2023/01/31 12:13:49;;;;;;;7.60;3.20;;;5.90;99.90;;;;;;4886786;29;20621;-74
2023/01/31 12:16:19;;;;;;;11.80;3.03;;;5.80;99.90;;;;;;4895805;29;20211;-73
2023/01/31 12:19:10;;;;;;;6.70;3.50;;;5.80;99.90;;;;;;4883080;29;20417;-73
2023/01/31 12:21:57;;;;;;;15.67;4.60;;;5.70;99.90;;;;;;4880403;29;20409;-79
2023/01/31 12:24:55;;;;;;;6.90;3.63;;;5.80;99.90;;;;;;4896745;29;20436;-79
2023/01/31 12:27:30;;;;;;;12.00;3.00;;;5.60;99.90;;;;;;4902957;29;20417;-78
2023/01/31 12:30:09;;;;;;;10.63;3.60;;;5.60;99.90;;;;;;4892567;29;20767;-78
2023/01/31 12:32:49;;;;;;;5.80;2.70;;;5.60;99.90;;;;;;4891366;29;20471;-78
2023/01/31 12:35:26;;;;;;;12.00;3.77;;;5.50;99.90;;;;;;4877865;29;20448;-78
2023/01/31 12:38:25;;;;;;;6.10;3.10;;;5.40;99.90;;;;;;4893032;29;20410;-78
2023/01/31 12:40:56;;;;;;;8.70;3.13;;;5.40;99.90;;;;;;4880250;29;20903;-79
2023/01/31 12:43:55;;;;;;;13.20;5.00;;;5.30;99.90;;;;;;4882332;29;20428;-78
2023/01/31 12:46:29;;;;;;;7.37;3.03;;;5.30;99.90;;;;;;4885742;29;20482;-80
2023/01/31 12:49:27;;;;;;;6.13;3.90;;;5.20;99.90;;;;;;4898534;29;20468;-79
2023/01/31 12:52:05;;;;;;;8.70;3.67;;;5.20;99.90;;;;;;4867623;29;20432;-79
2023/01/31 12:54:42;;;;;;;11.27;4.13;;;5.00;99.90;;;;;;4892407;29;20451;-78
2023/01/31 12:57:21;;;;;;;6.37;3.23;;;5.00;99.90;;;;;;4899823;29;20452;-78
2023/01/31 12:59:55;;;;;;;8.90;4.07;;;5.00;99.90;;;;;;4884399;29;20436;-78
2023/01/31 13:02:29;;;;;;;14.93;4.83;;;4.90;99.90;;;;;;4894197;29;20434;-79
2023/01/31 13:05:02;;;;;;;7.53;3.40;;;4.90;99.90;;;;;;4875045;29;20849;-78
2023/01/31 13:07:44;;;;;;;6.63;3.37;;;4.80;99.90;;;;;;4878460;29;20452;-78
2023/01/31 13:10:42;;;;;;;7.60;4.30;;;4.80;99.90;;;;;;4901747;29;20507;-78
2023/01/31 13:13:24;;;;;;;6.40;3.90;;;4.80;99.90;;;;;;4888540;29;20560;-75
2023/01/31 13:15:54;;;;;;;18.40;5.50;;;4.80;99.90;;;;;;4862012;29;20466;-70
2023/01/31 13:18:22;;;;;;;8.03;4.10;;;4.80;99.90;;;;;;4876621;29;20433;-72
2023/01/31 13:20:57;;;;;;;7.33;5.07;;;4.80;99.90;;;;;;4897761;29;20476;-71
2023/01/31 13:23:35;;;;;;;16.20;5.27;;;4.80;99.90;;;;;;4887793;29;20452;-73
2023/01/31 13:26:08;;;;;;;11.33;5.27;;;4.90;99.90;;;;;;4890895;29;20490;-72